< < Back
Terminal Aerodrome Forecast


Current Version              Previous Versions:   1  2  3  4  5  6  7  8  9  

Terminal Aerodrome Forecast

663
FTUS44 KMOB 291910 AAB
TAFMOB
TAF AMD
KMOB 291910Z 2919/3018 VRB05KT P6SM VCTS SCT035CB BKN200
      TEMPO 2919/2923 VRB15G30KT 1SM TSRA BKN015CB
     FM300200 30005KT P6SM BKN050=

Latest METAR

992
SAUS80 KWBC 300600
MTRMOB
METAR KMOB 300556Z AUTO 32004KT 10SM CLR 25/24 A3001 RMK AO2 SLP158
T02500244 10283 20250 403560239 50003


USA.gov is the U.S. government's official web portal to all federal, state and local government web resources and services.